sensor_id;sensor_type;location;lat;lon;timestamp;P1;durP1;ratioP1;P2;durP2;ratioP2
75986;SDS011;75291;44.670;37.810;2024-02-28T00:00:07;11.15;;;4.03;;
75986;SDS011;75291;44.670;37.810;2024-02-28T00:01:15;9.18;;;3.50;;
75986;SDS011;75291;44.670;37.810;2024-02-28T00:02:20;11.35;;;3.85;;
75986;SDS011;75291;44.670;37.810;2024-02-28T00:03:24;8.55;;;3.63;;
75986;SDS011;75291;44.670;37.810;2024-02-28T00:04:29;8.60;;;3.60;;
75986;SDS011;75291;44.670;37.810;2024-02-28T00:05:35;9.40;;;4.10;;
75986;SDS011;75291;44.670;37.810;2024-02-28T00:06:40;12.93;;;4.28;;
75986;SDS011;75291;44.670;37.810;2024-02-28T00:07:44;12.07;;;5.13;;
75986;SDS011;75291;44.670;37.810;2024-02-28T00:08:49;13.75;;;3.92;;
75986;SDS011;75291;44.670;37.810;2024-02-28T00:09:57;7.55;;;3.80;;
75986;SDS011;75291;44.670;37.810;2024-02-28T00:11:03;9.73;;;3.30;;
75986;SDS011;75291;44.670;37.810;2024-02-28T00:12:07;10.25;;;3.83;;
75986;SDS011;75291;44.670;37.810;2024-02-28T00:13:14;11.07;;;3.55;;
75986;SDS011;75291;44.670;37.810;2024-02-28T00:14:19;13.15;;;3.58;;
75986;SDS011;75291;44.670;37.810;2024-02-28T00:15:24;9.23;;;3.10;;
75986;SDS011;75291;44.670;37.810;2024-02-28T00:16:28;12.25;;;3.55;;
75986;SDS011;75291;44.670;37.810;2024-02-28T00:17:33;14.38;;;3.80;;
75986;SDS011;75291;44.670;37.810;2024-02-28T00:18:38;8.98;;;4.47;;
75986;SDS011;75291;44.670;37.810;2024-02-28T00:19:43;13.88;;;4.10;;
75986;SDS011;75291;44.670;37.810;2024-02-28T00:20:48;9.20;;;3.92;;
75986;SDS011;75291;44.670;37.810;2024-02-28T00:21:53;9.10;;;3.33;;
75986;SDS011;75291;44.670;37.810;2024-02-28T00:22:58;10.85;;;3.95;;
75986;SDS011;75291;44.670;37.810;2024-02-28T00:24:03;8.02;;;3.22;;
75986;SDS011;75291;44.670;37.810;2024-02-28T00:25:07;12.02;;;3.58;;
75986;SDS011;75291;44.670;37.810;2024-02-28T00:26:14;10.98;;;3.55;;
75986;SDS011;75291;44.670;37.810;2024-02-28T00:27:19;7.70;;;3.55;;
75986;SDS011;75291;44.670;37.810;2024-02-28T00:28:23;9.38;;;4.35;;
75986;SDS011;75291;44.670;37.810;2024-02-28T00:29:28;9.25;;;3.50;;
75986;SDS011;75291;44.670;37.810;2024-02-28T00:30:34;8.30;;;4.20;;
75986;SDS011;75291;44.670;37.810;2024-02-28T00:31:39;8.30;;;3.60;;
75986;SDS011;75291;44.670;37.810;2024-02-28T00:32:43;11.00;;;3.30;;
75986;SDS011;75291;44.670;37.810;2024-02-28T00:33:48;8.85;;;3.83;;
75986;SDS011;75291;44.670;37.810;2024-02-28T00:34:53;8.43;;;3.40;;
75986;SDS011;75291;44.670;37.810;2024-02-28T00:35:58;9.18;;;4.22;;
75986;SDS011;75291;44.670;37.810;2024-02-28T00:37:03;15.80;;;5.32;;
75986;SDS011;75291;44.670;37.810;2024-02-28T00:38:08;7.40;;;3.72;;
75986;SDS011;75291;44.670;37.810;2024-02-28T00:39:13;8.68;;;4.00;;
75986;SDS011;75291;44.670;37.810;2024-02-28T00:40:18;9.77;;;3.63;;
75986;SDS011;75291;44.670;37.810;2024-02-28T00:41:23;7.68;;;3.13;;
75986;SDS011;75291;44.670;37.810;2024-02-28T00:42:27;7.47;;;3.30;;
75986;SDS011;75291;44.670;37.810;2024-02-28T00:43:31;7.60;;;3.50;;
75986;SDS011;75291;44.670;37.810;2024-02-28T00:44:36;11.43;;;3.75;;
75986;SDS011;75291;44.670;37.810;2024-02-28T00:45:40;8.48;;;3.55;;
75986;SDS011;75291;44.670;37.810;2024-02-28T00:46:44;13.05;;;3.88;;
75986;SDS011;75291;44.670;37.810;2024-02-28T00:47:49;10.77;;;3.95;;
75986;SDS011;75291;44.670;37.810;2024-02-28T00:48:54;8.30;;;3.83;;
75986;SDS011;75291;44.670;37.810;2024-02-28T00:49:59;11.70;;;4.32;;
75986;SDS011;75291;44.670;37.810;2024-02-28T00:51:04;11.82;;;3.97;;
75986;SDS011;75291;44.670;37.810;2024-02-28T00:52:08;12.23;;;3.70;;
75986;SDS011;75291;44.670;37.810;2024-02-28T00:53:13;7.03;;;3.30;;
75986;SDS011;75291;44.670;37.810;2024-02-28T00:54:17;9.07;;;3.63;;
75986;SDS011;75291;44.670;37.810;2024-02-28T00:55:21;9.07;;;3.92;;
75986;SDS011;75291;44.670;37.810;2024-02-28T00:56:26;9.38;;;3.13;;
75986;SDS011;75291;44.670;37.810;2024-02-28T00:57:32;10.25;;;3.70;;
75986;SDS011;75291;44.670;37.810;2024-02-28T00:58:37;8.13;;;3.33;;
75986;SDS011;75291;44.670;37.810;2024-02-28T00:59:42;9.80;;;3.88;;
75986;SDS011;75291;44.670;37.810;2024-02-28T01:00:47;9.05;;;3.75;;
75986;SDS011;75291;44.670;37.810;2024-02-28T01:01:53;12.27;;;4.07;;
75986;SDS011;75291;44.670;37.810;2024-02-28T01:02:58;11.02;;;4.35;;
75986;SDS011;75291;44.670;37.810;2024-02-28T01:04:03;7.63;;;3.78;;
75986;SDS011;75291;44.670;37.810;2024-02-28T01:05:09;7.15;;;4.13;;
75986;SDS011;75291;44.670;37.810;2024-02-28T01:06:14;9.38;;;3.70;;
75986;SDS011;75291;44.670;37.810;2024-02-28T01:07:20;10.27;;;4.15;;
75986;SDS011;75291;44.670;37.810;2024-02-28T01:08:24;9.77;;;3.85;;
75986;SDS011;75291;44.670;37.810;2024-02-28T01:09:29;8.30;;;3.33;;
75986;SDS011;75291;44.670;37.810;2024-02-28T01:10:34;9.73;;;3.30;;
75986;SDS011;75291;44.670;37.810;2024-02-28T01:11:39;7.15;;;3.17;;
75986;SDS011;75291;44.670;37.810;2024-02-28T01:12:44;7.40;;;3.40;;
75986;SDS011;75291;44.670;37.810;2024-02-28T01:13:49;8.68;;;3.22;;
75986;SDS011;75291;44.670;37.810;2024-02-28T01:14:53;11.63;;;3.75;;
75986;SDS011;75291;44.670;37.810;2024-02-28T01:15:57;8.45;;;3.38;;
75986;SDS011;75291;44.670;37.810;2024-02-28T01:17:04;8.38;;;3.65;;
75986;SDS011;75291;44.670;37.810;2024-02-28T01:18:09;6.38;;;3.58;;
75986;SDS011;75291;44.670;37.810;2024-02-28T01:19:15;6.32;;;3.33;;
75986;SDS011;75291;44.670;37.810;2024-02-28T01:20:23;8.90;;;3.65;;
75986;SDS011;75291;44.670;37.810;2024-02-28T01:21:27;7.95;;;3.40;;
75986;SDS011;75291;44.670;37.810;2024-02-28T01:22:32;7.50;;;2.95;;
75986;SDS011;75291;44.670;37.810;2024-02-28T01:23:37;9.40;;;3.60;;
75986;SDS011;75291;44.670;37.810;2024-02-28T01:24:42;10.02;;;3.65;;
75986;SDS011;75291;44.670;37.810;2024-02-28T01:25:46;9.15;;;3.35;;
75986;SDS011;75291;44.670;37.810;2024-02-28T01:26:52;9.98;;;3.65;;
75986;SDS011;75291;44.670;37.810;2024-02-28T01:27:56;5.28;;;2.92;;
75986;SDS011;75291;44.670;37.810;2024-02-28T01:29:04;9.15;;;3.22;;
75986;SDS011;75291;44.670;37.810;2024-02-28T01:30:08;9.80;;;3.80;;
75986;SDS011;75291;44.670;37.810;2024-02-28T01:31:13;10.60;;;3.88;;
75986;SDS011;75291;44.670;37.810;2024-02-28T01:32:18;6.47;;;3.00;;
75986;SDS011;75291;44.670;37.810;2024-02-28T01:33:23;9.02;;;3.67;;
75986;SDS011;75291;44.670;37.810;2024-02-28T01:34:28;12.25;;;3.22;;
75986;SDS011;75291;44.670;37.810;2024-02-28T01:35:33;10.32;;;3.00;;
75986;SDS011;75291;44.670;37.810;2024-02-28T01:36:38;5.80;;;3.63;;
75986;SDS011;75291;44.670;37.810;2024-02-28T01:37:42;8.20;;;3.47;;
75986;SDS011;75291;44.670;37.810;2024-02-28T01:38:47;5.78;;;3.28;;
75986;SDS011;75291;44.670;37.810;2024-02-28T01:39:51;8.02;;;3.63;;
75986;SDS011;75291;44.670;37.810;2024-02-28T01:40:56;5.15;;;3.08;;
75986;SDS011;75291;44.670;37.810;2024-02-28T01:42:01;8.30;;;3.83;;
75986;SDS011;75291;44.670;37.810;2024-02-28T01:43:08;8.73;;;3.90;;
75986;SDS011;75291;44.670;37.810;2024-02-28T01:44:13;9.05;;;3.92;;
75986;SDS011;75291;44.670;37.810;2024-02-28T01:45:17;6.18;;;3.53;;
75986;SDS011;75291;44.670;37.810;2024-02-28T01:46:22;8.88;;;3.55;;
75986;SDS011;75291;44.670;37.810;2024-02-28T01:48:35;6.72;;;3.35;;
75986;SDS011;75291;44.670;37.810;2024-02-28T01:49:39;9.13;;;3.80;;
75986;SDS011;75291;44.670;37.810;2024-02-28T01:50:45;12.05;;;3.83;;
75986;SDS011;75291;44.670;37.810;2024-02-28T01:51:50;7.20;;;3.50;;
75986;SDS011;75291;44.670;37.810;2024-02-28T01:52:58;6.88;;;3.28;;
75986;SDS011;75291;44.670;37.810;2024-02-28T01:54:03;8.45;;;3.63;;
75986;SDS011;75291;44.670;37.810;2024-02-28T01:55:07;9.10;;;3.80;;
75986;SDS011;75291;44.670;37.810;2024-02-28T01:56:14;9.00;;;3.47;;
75986;SDS011;75291;44.670;37.810;2024-02-28T01:57:20;6.57;;;3.75;;
75986;SDS011;75291;44.670;37.810;2024-02-28T01:58:25;7.85;;;3.17;;
75986;SDS011;75291;44.670;37.810;2024-02-28T01:59:30;8.38;;;3.33;;
75986;SDS011;75291;44.670;37.810;2024-02-28T02:00:36;9.15;;;3.17;;
75986;SDS011;75291;44.670;37.810;2024-02-28T02:01:41;5.80;;;3.00;;
75986;SDS011;75291;44.670;37.810;2024-02-28T02:02:46;7.72;;;4.20;;
75986;SDS011;75291;44.670;37.810;2024-02-28T02:03:50;8.68;;;3.65;;
75986;SDS011;75291;44.670;37.810;2024-02-28T02:04:54;8.63;;;3.58;;
75986;SDS011;75291;44.670;37.810;2024-02-28T02:06:02;8.07;;;3.20;;
75986;SDS011;75291;44.670;37.810;2024-02-28T02:07:08;10.25;;;4.00;;
75986;SDS011;75291;44.670;37.810;2024-02-28T02:08:13;6.80;;;3.95;;
75986;SDS011;75291;44.670;37.810;2024-02-28T02:09:18;8.38;;;3.33;;
75986;SDS011;75291;44.670;37.810;2024-02-28T02:10:23;8.80;;;3.10;;
75986;SDS011;75291;44.670;37.810;2024-02-28T02:11:29;11.25;;;3.55;;
75986;SDS011;75291;44.670;37.810;2024-02-28T02:12:35;8.52;;;3.25;;
75986;SDS011;75291;44.670;37.810;2024-02-28T02:13:50;6.35;;;2.88;;
75986;SDS011;75291;44.670;37.810;2024-02-28T02:14:55;8.30;;;3.97;;
75986;SDS011;75291;44.670;37.810;2024-02-28T02:16:00;6.50;;;3.30;;
75986;SDS011;75291;44.670;37.810;2024-02-28T02:17:05;8.10;;;3.30;;
75986;SDS011;75291;44.670;37.810;2024-02-28T02:18:10;5.45;;;3.30;;
75986;SDS011;75291;44.670;37.810;2024-02-28T02:19:14;7.47;;;3.33;;
75986;SDS011;75291;44.670;37.810;2024-02-28T02:20:19;5.60;;;2.97;;
75986;SDS011;75291;44.670;37.810;2024-02-28T02:21:31;7.45;;;3.28;;
75986;SDS011;75291;44.670;37.810;2024-02-28T02:22:40;6.72;;;3.15;;
75986;SDS011;75291;44.670;37.810;2024-02-28T02:23:46;8.27;;;3.67;;
75986;SDS011;75291;44.670;37.810;2024-02-28T02:24:51;7.53;;;2.95;;
75986;SDS011;75291;44.670;37.810;2024-02-28T02:25:55;8.55;;;3.30;;
75986;SDS011;75291;44.670;37.810;2024-02-28T02:27:00;7.00;;;3.70;;
75986;SDS011;75291;44.670;37.810;2024-02-28T02:28:09;6.80;;;3.38;;
75986;SDS011;75291;44.670;37.810;2024-02-28T02:29:13;8.70;;;4.22;;
75986;SDS011;75291;44.670;37.810;2024-02-28T02:30:18;7.18;;;3.40;;
75986;SDS011;75291;44.670;37.810;2024-02-28T02:31:23;10.13;;;3.60;;
75986;SDS011;75291;44.670;37.810;2024-02-28T02:32:28;6.57;;;3.85;;
75986;SDS011;75291;44.670;37.810;2024-02-28T02:33:34;8.88;;;4.10;;
75986;SDS011;75291;44.670;37.810;2024-02-28T02:34:38;9.15;;;5.30;;
75986;SDS011;75291;44.670;37.810;2024-02-28T02:35:43;10.93;;;5.32;;
75986;SDS011;75291;44.670;37.810;2024-02-28T02:36:48;8.10;;;4.45;;
75986;SDS011;75291;44.670;37.810;2024-02-28T02:37:52;9.25;;;5.20;;
75986;SDS011;75291;44.670;37.810;2024-02-28T02:38:57;10.32;;;4.85;;
75986;SDS011;75291;44.670;37.810;2024-02-28T02:40:02;7.97;;;4.53;;
75986;SDS011;75291;44.670;37.810;2024-02-28T02:41:06;9.85;;;4.80;;
75986;SDS011;75291;44.670;37.810;2024-02-28T02:42:10;11.00;;;5.45;;
75986;SDS011;75291;44.670;37.810;2024-02-28T02:43:17;9.80;;;5.10;;
75986;SDS011;75291;44.670;37.810;2024-02-28T02:44:22;9.77;;;5.50;;
75986;SDS011;75291;44.670;37.810;2024-02-28T02:45:27;11.85;;;5.25;;
75986;SDS011;75291;44.670;37.810;2024-02-28T02:46:32;8.93;;;5.00;;
75986;SDS011;75291;44.670;37.810;2024-02-28T02:47:37;12.35;;;5.50;;
75986;SDS011;75291;44.670;37.810;2024-02-28T02:48:41;8.70;;;5.20;;
75986;SDS011;75291;44.670;37.810;2024-02-28T02:49:46;10.93;;;6.13;;
75986;SDS011;75291;44.670;37.810;2024-02-28T02:50:49;9.43;;;5.45;;
75986;SDS011;75291;44.670;37.810;2024-02-28T02:51:54;10.25;;;4.80;;
75986;SDS011;75291;44.670;37.810;2024-02-28T02:52:59;10.60;;;4.82;;
75986;SDS011;75291;44.670;37.810;2024-02-28T02:54:04;9.38;;;4.95;;
75986;SDS011;75291;44.670;37.810;2024-02-28T02:55:09;10.00;;;4.65;;
75986;SDS011;75291;44.670;37.810;2024-02-28T02:56:14;8.98;;;4.68;;
75986;SDS011;75291;44.670;37.810;2024-02-28T02:57:19;8.32;;;4.55;;
75986;SDS011;75291;44.670;37.810;2024-02-28T02:58:24;8.25;;;4.22;;
75986;SDS011;75291;44.670;37.810;2024-02-28T02:59:28;9.65;;;5.13;;
75986;SDS011;75291;44.670;37.810;2024-02-28T03:00:33;10.23;;;5.00;;
75986;SDS011;75291;44.670;37.810;2024-02-28T03:01:38;8.98;;;4.55;;
75986;SDS011;75291;44.670;37.810;2024-02-28T03:02:42;14.52;;;5.03;;
75986;SDS011;75291;44.670;37.810;2024-02-28T03:03:47;9.98;;;4.45;;
75986;SDS011;75291;44.670;37.810;2024-02-28T03:04:52;17.20;;;5.15;;
75986;SDS011;75291;44.670;37.810;2024-02-28T03:05:58;11.82;;;4.90;;
75986;SDS011;75291;44.670;37.810;2024-02-28T03:07:02;8.85;;;4.93;;
75986;SDS011;75291;44.670;37.810;2024-02-28T03:08:07;11.40;;;4.85;;
75986;SDS011;75291;44.670;37.810;2024-02-28T03:09:12;8.02;;;4.20;;
75986;SDS011;75291;44.670;37.810;2024-02-28T03:10:17;7.20;;;3.90;;
75986;SDS011;75291;44.670;37.810;2024-02-28T03:11:22;8.30;;;4.32;;
75986;SDS011;75291;44.670;37.810;2024-02-28T03:12:27;6.03;;;3.60;;
75986;SDS011;75291;44.670;37.810;2024-02-28T03:13:42;9.07;;;4.28;;
75986;SDS011;75291;44.670;37.810;2024-02-28T03:14:46;12.55;;;4.05;;
75986;SDS011;75291;44.670;37.810;2024-02-28T03:15:53;7.05;;;3.92;;
75986;SDS011;75291;44.670;37.810;2024-02-28T03:16:58;10.10;;;4.25;;
75986;SDS011;75291;44.670;37.810;2024-02-28T03:18:03;7.90;;;3.70;;
75986;SDS011;75291;44.670;37.810;2024-02-28T03:19:09;9.25;;;4.07;;
75986;SDS011;75291;44.670;37.810;2024-02-28T03:20:15;8.82;;;3.85;;
75986;SDS011;75291;44.670;37.810;2024-02-28T03:21:20;6.93;;;4.25;;
75986;SDS011;75291;44.670;37.810;2024-02-28T03:22:26;8.55;;;4.38;;
75986;SDS011;75291;44.670;37.810;2024-02-28T03:23:31;8.90;;;3.67;;
75986;SDS011;75291;44.670;37.810;2024-02-28T03:24:36;8.32;;;4.18;;
75986;SDS011;75291;44.670;37.810;2024-02-28T03:25:41;11.13;;;4.53;;
75986;SDS011;75291;44.670;37.810;2024-02-28T03:26:47;11.48;;;4.28;;
75986;SDS011;75291;44.670;37.810;2024-02-28T03:27:52;13.98;;;6.05;;
75986;SDS011;75291;44.670;37.810;2024-02-28T03:28:57;7.68;;;3.95;;
75986;SDS011;75291;44.670;37.810;2024-02-28T03:30:02;8.98;;;4.18;;
75986;SDS011;75291;44.670;37.810;2024-02-28T03:31:07;7.60;;;3.78;;
75986;SDS011;75291;44.670;37.810;2024-02-28T03:32:11;9.63;;;4.20;;
75986;SDS011;75291;44.670;37.810;2024-02-28T03:33:16;6.88;;;3.55;;
75986;SDS011;75291;44.670;37.810;2024-02-28T03:34:21;13.75;;;3.92;;
75986;SDS011;75291;44.670;37.810;2024-02-28T03:35:26;10.02;;;5.10;;
75986;SDS011;75291;44.670;37.810;2024-02-28T03:36:31;15.40;;;5.72;;
75986;SDS011;75291;44.670;37.810;2024-02-28T03:37:37;9.40;;;5.30;;
75986;SDS011;75291;44.670;37.810;2024-02-28T03:38:42;10.68;;;5.13;;
75986;SDS011;75291;44.670;37.810;2024-02-28T03:39:47;8.88;;;5.00;;
75986;SDS011;75291;44.670;37.810;2024-02-28T03:40:51;8.43;;;4.10;;
75986;SDS011;75291;44.670;37.810;2024-02-28T03:41:56;10.13;;;4.57;;
75986;SDS011;75291;44.670;37.810;2024-02-28T03:43:02;6.90;;;3.33;;
75986;SDS011;75291;44.670;37.810;2024-02-28T03:44:07;6.57;;;4.05;;
75986;SDS011;75291;44.670;37.810;2024-02-28T03:45:12;7.95;;;3.40;;
75986;SDS011;75291;44.670;37.810;2024-02-28T03:46:17;12.07;;;4.13;;
75986;SDS011;75291;44.670;37.810;2024-02-28T03:47:21;7.55;;;3.70;;
75986;SDS011;75291;44.670;37.810;2024-02-28T03:48:26;12.07;;;4.32;;
75986;SDS011;75291;44.670;37.810;2024-02-28T03:49:31;14.18;;;4.35;;
75986;SDS011;75291;44.670;37.810;2024-02-28T03:50:36;10.60;;;4.70;;
75986;SDS011;75291;44.670;37.810;2024-02-28T03:51:41;9.20;;;4.30;;
75986;SDS011;75291;44.670;37.810;2024-02-28T03:52:49;7.32;;;4.10;;
75986;SDS011;75291;44.670;37.810;2024-02-28T03:53:54;6.80;;;4.20;;
75986;SDS011;75291;44.670;37.810;2024-02-28T03:54:59;8.55;;;3.95;;
75986;SDS011;75291;44.670;37.810;2024-02-28T03:56:04;11.20;;;4.35;;
75986;SDS011;75291;44.670;37.810;2024-02-28T03:57:09;7.60;;;3.78;;
75986;SDS011;75291;44.670;37.810;2024-02-28T03:58:14;8.23;;;4.22;;
75986;SDS011;75291;44.670;37.810;2024-02-28T03:59:18;8.05;;;3.88;;
75986;SDS011;75291;44.670;37.810;2024-02-28T04:00:23;6.40;;;3.85;;
75986;SDS011;75291;44.670;37.810;2024-02-28T04:01:30;10.00;;;4.40;;
75986;SDS011;75291;44.670;37.810;2024-02-28T04:02:35;7.32;;;3.88;;
75986;SDS011;75291;44.670;37.810;2024-02-28T04:03:39;7.65;;;4.18;;
75986;SDS011;75291;44.670;37.810;2024-02-28T04:04:43;7.97;;;3.70;;
75986;SDS011;75291;44.670;37.810;2024-02-28T04:05:48;12.55;;;4.30;;
75986;SDS011;75291;44.670;37.810;2024-02-28T04:06:52;7.72;;;3.95;;
75986;SDS011;75291;44.670;37.810;2024-02-28T04:07:58;10.82;;;4.43;;
75986;SDS011;75291;44.670;37.810;2024-02-28T04:09:03;9.07;;;4.10;;
75986;SDS011;75291;44.670;37.810;2024-02-28T04:10:08;8.82;;;3.60;;
75986;SDS011;75291;44.670;37.810;2024-02-28T04:11:15;12.77;;;3.92;;
75986;SDS011;75291;44.670;37.810;2024-02-28T04:12:19;10.25;;;4.40;;
75986;SDS011;75291;44.670;37.810;2024-02-28T04:13:25;8.38;;;3.75;;
75986;SDS011;75291;44.670;37.810;2024-02-28T04:14:29;10.30;;;4.45;;
75986;SDS011;75291;44.670;37.810;2024-02-28T04:15:34;8.57;;;4.07;;
75986;SDS011;75291;44.670;37.810;2024-02-28T04:16:43;12.85;;;4.07;;
75986;SDS011;75291;44.670;37.810;2024-02-28T04:17:49;7.68;;;4.72;;
75986;SDS011;75291;44.670;37.810;2024-02-28T04:18:54;7.40;;;3.88;;
75986;SDS011;75291;44.670;37.810;2024-02-28T04:19:59;8.65;;;4.20;;
75986;SDS011;75291;44.670;37.810;2024-02-28T04:21:08;10.13;;;3.83;;
75986;SDS011;75291;44.670;37.810;2024-02-28T04:22:14;10.60;;;4.35;;
75986;SDS011;75291;44.670;37.810;2024-02-28T04:23:19;12.05;;;4.50;;
75986;SDS011;75291;44.670;37.810;2024-02-28T04:24:25;8.60;;;3.83;;
75986;SDS011;75291;44.670;37.810;2024-02-28T04:25:30;7.18;;;5.40;;
75986;SDS011;75291;44.670;37.810;2024-02-28T04:26:35;11.15;;;4.25;;
75986;SDS011;75291;44.670;37.810;2024-02-28T04:27:40;13.43;;;5.75;;
75986;SDS011;75291;44.670;37.810;2024-02-28T04:28:46;10.43;;;3.75;;
75986;SDS011;75291;44.670;37.810;2024-02-28T04:29:50;8.55;;;4.13;;
75986;SDS011;75291;44.670;37.810;2024-02-28T04:30:56;10.82;;;5.10;;
75986;SDS011;75291;44.670;37.810;2024-02-28T04:32:01;9.90;;;5.60;;
75986;SDS011;75291;44.670;37.810;2024-02-28T04:33:05;9.77;;;4.10;;
75986;SDS011;75291;44.670;37.810;2024-02-28T04:34:10;11.35;;;3.72;;
75986;SDS011;75291;44.670;37.810;2024-02-28T04:35:15;12.65;;;4.35;;
75986;SDS011;75291;44.670;37.810;2024-02-28T04:36:22;13.05;;;4.40;;
75986;SDS011;75291;44.670;37.810;2024-02-28T04:37:27;6.38;;;3.88;;
75986;SDS011;75291;44.670;37.810;2024-02-28T04:38:32;13.73;;;3.92;;
75986;SDS011;75291;44.670;37.810;2024-02-28T04:39:36;14.18;;;4.80;;
75986;SDS011;75291;44.670;37.810;2024-02-28T04:40:41;23.02;;;4.80;;
75986;SDS011;75291;44.670;37.810;2024-02-28T04:41:46;19.33;;;5.68;;
75986;SDS011;75291;44.670;37.810;2024-02-28T04:42:51;16.98;;;6.10;;
75986;SDS011;75291;44.670;37.810;2024-02-28T04:43:55;12.27;;;5.15;;
75986;SDS011;75291;44.670;37.810;2024-02-28T04:45:01;9.50;;;4.88;;
75986;SDS011;75291;44.670;37.810;2024-02-28T04:46:10;17.98;;;5.28;;
75986;SDS011;75291;44.670;37.810;2024-02-28T04:47:14;12.70;;;7.03;;
75986;SDS011;75291;44.670;37.810;2024-02-28T04:48:19;16.38;;;6.63;;
75986;SDS011;75291;44.670;37.810;2024-02-28T04:49:24;14.95;;;6.32;;
75986;SDS011;75291;44.670;37.810;2024-02-28T04:50:30;12.35;;;5.50;;
75986;SDS011;75291;44.670;37.810;2024-02-28T04:51:35;15.45;;;5.68;;
75986;SDS011;75291;44.670;37.810;2024-02-28T04:52:40;11.75;;;5.25;;
75986;SDS011;75291;44.670;37.810;2024-02-28T04:53:44;10.15;;;5.95;;
75986;SDS011;75291;44.670;37.810;2024-02-28T04:54:49;10.02;;;5.13;;
75986;SDS011;75291;44.670;37.810;2024-02-28T04:55:55;16.15;;;5.10;;
75986;SDS011;75291;44.670;37.810;2024-02-28T04:57:00;13.80;;;5.72;;
75986;SDS011;75291;44.670;37.810;2024-02-28T04:58:05;15.98;;;4.95;;
75986;SDS011;75291;44.670;37.810;2024-02-28T04:59:12;10.00;;;4.65;;
75986;SDS011;75291;44.670;37.810;2024-02-28T05:00:17;10.80;;;4.18;;
75986;SDS011;75291;44.670;37.810;2024-02-28T05:01:22;14.98;;;5.55;;
75986;SDS011;75291;44.670;37.810;2024-02-28T05:02:28;10.82;;;4.07;;
75986;SDS011;75291;44.670;37.810;2024-02-28T05:03:32;10.90;;;4.20;;
75986;SDS011;75291;44.670;37.810;2024-02-28T05:04:36;11.43;;;3.83;;
75986;SDS011;75291;44.670;37.810;2024-02-28T05:05:41;14.15;;;5.10;;
75986;SDS011;75291;44.670;37.810;2024-02-28T05:06:45;11.77;;;4.82;;
75986;SDS011;75291;44.670;37.810;2024-02-28T05:07:49;9.23;;;3.92;;
75986;SDS011;75291;44.670;37.810;2024-02-28T05:08:54;14.75;;;4.93;;
75986;SDS011;75291;44.670;37.810;2024-02-28T05:09:59;17.52;;;4.57;;
75986;SDS011;75291;44.670;37.810;2024-02-28T05:11:04;11.43;;;4.93;;
75986;SDS011;75291;44.670;37.810;2024-02-28T05:12:08;16.92;;;4.65;;
75986;SDS011;75291;44.670;37.810;2024-02-28T05:13:16;14.32;;;4.72;;
75986;SDS011;75291;44.670;37.810;2024-02-28T05:14:20;11.13;;;4.10;;
75986;SDS011;75291;44.670;37.810;2024-02-28T05:15:25;9.10;;;4.47;;
75986;SDS011;75291;44.670;37.810;2024-02-28T05:16:30;8.30;;;4.30;;
75986;SDS011;75291;44.670;37.810;2024-02-28T05:17:36;12.02;;;4.43;;
75986;SDS011;75291;44.670;37.810;2024-02-28T05:18:41;9.80;;;4.78;;
75986;SDS011;75291;44.670;37.810;2024-02-28T05:19:49;22.42;;;10.70;;
75986;SDS011;75291;44.670;37.810;2024-02-28T05:20:54;14.10;;;8.98;;
75986;SDS011;75291;44.670;37.810;2024-02-28T05:21:59;20.85;;;6.63;;
75986;SDS011;75291;44.670;37.810;2024-02-28T05:23:05;11.82;;;8.95;;
75986;SDS011;75291;44.670;37.810;2024-02-28T05:24:09;17.40;;;5.90;;
75986;SDS011;75291;44.670;37.810;2024-02-28T05:25:15;12.05;;;5.53;;
75986;SDS011;75291;44.670;37.810;2024-02-28T05:26:20;14.13;;;5.57;;
75986;SDS011;75291;44.670;37.810;2024-02-28T05:27:25;7.78;;;4.95;;
75986;SDS011;75291;44.670;37.810;2024-02-28T05:28:30;12.60;;;4.55;;
75986;SDS011;75291;44.670;37.810;2024-02-28T05:29:36;17.67;;;5.05;;
75986;SDS011;75291;44.670;37.810;2024-02-28T05:30:41;11.75;;;4.63;;
75986;SDS011;75291;44.670;37.810;2024-02-28T05:31:46;16.70;;;5.45;;
75986;SDS011;75291;44.670;37.810;2024-02-28T05:32:51;18.58;;;6.05;;
75986;SDS011;75291;44.670;37.810;2024-02-28T05:33:57;13.27;;;4.72;;
75986;SDS011;75291;44.670;37.810;2024-02-28T05:35:02;11.32;;;5.00;;
75986;SDS011;75291;44.670;37.810;2024-02-28T05:36:07;12.85;;;4.80;;
75986;SDS011;75291;44.670;37.810;2024-02-28T05:37:15;7.57;;;4.00;;
75986;SDS011;75291;44.670;37.810;2024-02-28T05:38:21;13.13;;;4.68;;
75986;SDS011;75291;44.670;37.810;2024-02-28T05:39:27;8.63;;;4.03;;
75986;SDS011;75291;44.670;37.810;2024-02-28T05:40:33;12.07;;;4.28;;
75986;SDS011;75291;44.670;37.810;2024-02-28T05:41:38;9.50;;;4.25;;
75986;SDS011;75291;44.670;37.810;2024-02-28T05:42:43;9.80;;;4.20;;
75986;SDS011;75291;44.670;37.810;2024-02-28T05:43:48;14.20;;;4.50;;
75986;SDS011;75291;44.670;37.810;2024-02-28T05:44:53;15.82;;;4.25;;
75986;SDS011;75291;44.670;37.810;2024-02-28T05:45:58;11.95;;;4.43;;
75986;SDS011;75291;44.670;37.810;2024-02-28T05:47:02;9.63;;;4.97;;
75986;SDS011;75291;44.670;37.810;2024-02-28T05:48:07;12.00;;;4.25;;
75986;SDS011;75291;44.670;37.810;2024-02-28T05:49:11;9.48;;;4.47;;
75986;SDS011;75291;44.670;37.810;2024-02-28T05:50:17;8.77;;;4.18;;
75986;SDS011;75291;44.670;37.810;2024-02-28T05:51:22;17.10;;;5.38;;
75986;SDS011;75291;44.670;37.810;2024-02-28T05:52:27;15.23;;;5.40;;
75986;SDS011;75291;44.670;37.810;2024-02-28T05:53:32;10.15;;;4.85;;
75986;SDS011;75291;44.670;37.810;2024-02-28T05:54:40;11.15;;;5.22;;
75986;SDS011;75291;44.670;37.810;2024-02-28T05:55:45;10.50;;;4.93;;
75986;SDS011;75291;44.670;37.810;2024-02-28T05:56:50;14.43;;;5.95;;
75986;SDS011;75291;44.670;37.810;2024-02-28T05:57:56;16.42;;;5.43;;
75986;SDS011;75291;44.670;37.810;2024-02-28T05:59:01;17.10;;;6.47;;
75986;SDS011;75291;44.670;37.810;2024-02-28T06:00:07;14.15;;;6.10;;
75986;SDS011;75291;44.670;37.810;2024-02-28T06:02:20;16.70;;;6.82;;
75986;SDS011;75291;44.670;37.810;2024-02-28T06:03:25;16.77;;;6.70;;
75986;SDS011;75291;44.670;37.810;2024-02-28T06:04:30;18.27;;;6.82;;
75986;SDS011;75291;44.670;37.810;2024-02-28T06:05:35;16.88;;;7.10;;
75986;SDS011;75291;44.670;37.810;2024-02-28T06:06:41;16.27;;;7.15;;
75986;SDS011;75291;44.670;37.810;2024-02-28T06:07:46;15.85;;;6.50;;
75986;SDS011;75291;44.670;37.810;2024-02-28T06:08:51;16.27;;;5.22;;
75986;SDS011;75291;44.670;37.810;2024-02-28T06:09:56;14.20;;;5.28;;
75986;SDS011;75291;44.670;37.810;2024-02-28T06:11:02;6.55;;;4.25;;
75986;SDS011;75291;44.670;37.810;2024-02-28T06:12:07;10.45;;;4.75;;
75986;SDS011;75291;44.670;37.810;2024-02-28T06:13:12;13.27;;;4.75;;
75986;SDS011;75291;44.670;37.810;2024-02-28T06:14:20;19.10;;;5.70;;
75986;SDS011;75291;44.670;37.810;2024-02-28T06:15:25;14.60;;;5.22;;
75986;SDS011;75291;44.670;37.810;2024-02-28T06:16:30;18.92;;;5.35;;
75986;SDS011;75291;44.670;37.810;2024-02-28T06:17:35;11.07;;;5.07;;
75986;SDS011;75291;44.670;37.810;2024-02-28T06:18:40;14.80;;;5.13;;
75986;SDS011;75291;44.670;37.810;2024-02-28T06:19:45;13.50;;;5.57;;
75986;SDS011;75291;44.670;37.810;2024-02-28T06:20:49;13.80;;;5.78;;
75986;SDS011;75291;44.670;37.810;2024-02-28T06:21:54;13.18;;;5.22;;
75986;SDS011;75291;44.670;37.810;2024-02-28T06:22:59;18.83;;;6.70;;
75986;SDS011;75291;44.670;37.810;2024-02-28T06:24:06;12.30;;;5.57;;
75986;SDS011;75291;44.670;37.810;2024-02-28T06:25:11;14.75;;;5.90;;
75986;SDS011;75291;44.670;37.810;2024-02-28T06:26:23;13.35;;;6.28;;